Time;durP1;ratioP1;P1;durP2;ratioP2;P2;SDS_P1;SDS_P2;PMS_P1;PMS_P2;Temp;Humidity;BMP_temperature;BMP_pressure;BME280_temperature;BME280_humidity;BME280_pressure;Samples;Min_cycle;Max_cycle;Signal;HPM_P1;HPM_P2
2022/05/09 00:01:23;;;;;;;15.38;4.75;;;11.30;71.50;;;;;;5017769;28;20057;-77
2022/05/09 00:03:51;;;;;;;12.55;4.32;;;11.30;71.70;;;;;;5016916;28;20049;-76
2022/05/09 00:06:19;;;;;;;11.73;4.18;;;11.20;71.90;;;;;;5034843;28;20053;-77
2022/05/09 00:08:51;;;;;;;16.63;4.82;;;11.10;72.10;;;;;;5033544;28;20041;-76
2022/05/09 00:11:20;;;;;;;11.68;4.38;;;11.10;72.40;;;;;;5015687;28;20212;-76
2022/05/09 00:13:53;;;;;;;10.25;4.72;;;11.00;72.60;;;;;;5032153;28;20049;-77
2022/05/09 00:16:21;;;;;;;12.50;4.13;;;10.90;72.90;;;;;;5035088;28;20053;-77
2022/05/09 00:18:51;;;;;;;14.32;4.50;;;10.90;73.00;;;;;;5018266;28;20431;-76
2022/05/09 00:21:19;;;;;;;17.65;4.55;;;10.80;73.40;;;;;;5035338;28;20133;-77
2022/05/09 00:23:51;;;;;;;15.98;4.88;;;10.80;73.60;;;;;;5012691;28;20038;-77
2022/05/09 00:26:20;;;;;;;12.85;4.47;;;10.80;74.00;;;;;;5003420;28;20045;-77
2022/05/09 00:28:49;;;;;;;14.63;4.90;;;10.80;74.10;;;;;;5033808;28;20060;-76
2022/05/09 00:31:17;;;;;;;12.75;5.10;;;10.70;74.30;;;;;;4999750;28;20052;-76
2022/05/09 00:33:48;;;;;;;10.50;4.38;;;10.60;74.50;;;;;;5033137;28;20041;-76
2022/05/09 00:36:18;;;;;;;10.13;4.60;;;10.60;74.70;;;;;;5016636;28;20142;-77
2022/05/09 00:38:47;;;;;;;19.10;5.38;;;10.50;74.90;;;;;;5023557;28;20041;-76
2022/05/09 00:41:41;;;;;;;12.05;5.15;;;10.50;75.10;;;;;;5033490;28;20061;-77
2022/05/09 00:44:27;;;;;;;11.55;4.53;;;10.40;75.30;;;;;;5019371;28;20057;-76
2022/05/09 00:46:56;;;;;;;16.05;5.00;;;10.30;75.70;;;;;;5031707;28;20049;-78
2022/05/09 00:49:38;;;;;;;12.70;4.68;;;10.30;75.70;;;;;;5034300;28;20049;-77
2022/05/09 00:52:17;;;;;;;15.32;5.18;;;10.20;76.00;;;;;;5033169;28;20049;-77
2022/05/09 00:54:53;;;;;;;12.98;5.00;;;10.20;76.20;;;;;;5027256;28;20399;-77
2022/05/09 00:57:52;;;;;;;10.48;4.68;;;10.10;76.20;;;;;;5033651;28;20096;-77
2022/05/09 01:00:24;;;;;;;9.02;4.65;;;10.10;76.30;;;;;;4986389;28;20069;-76
2022/05/09 01:02:59;;;;;;;15.82;4.72;;;10.10;76.40;;;;;;5002829;28;20052;-77
2022/05/09 01:05:29;;;;;;;13.73;5.47;;;10.00;76.60;;;;;;5035220;28;20060;-78
2022/05/09 01:07:58;;;;;;;16.08;5.00;;;10.00;76.70;;;;;;4999632;28;20053;-78
2022/05/09 01:10:32;;;;;;;15.55;5.20;;;10.00;76.80;;;;;;5000560;28;20037;-78
2022/05/09 01:13:04;;;;;;;16.40;5.45;;;9.90;77.00;;;;;;5033363;28;20045;-77
2022/05/09 01:15:34;;;;;;;14.57;5.47;;;9.90;77.20;;;;;;5032711;28;20041;-77
2022/05/09 01:18:09;;;;;;;15.88;5.05;;;9.80;77.30;;;;;;5033430;28;20068;-78
2022/05/09 01:20:38;;;;;;;16.25;5.70;;;9.80;77.50;;;;;;5033337;28;20104;-76
2022/05/09 01:23:09;;;;;;;15.57;5.68;;;9.80;77.60;;;;;;5021525;28;20064;-78
2022/05/09 01:25:42;;;;;;;16.02;6.47;;;9.70;77.80;;;;;;5017433;28;20056;-77
2022/05/09 01:28:11;;;;;;;22.33;5.88;;;9.70;78.00;;;;;;5031910;28;20050;-77
2022/05/09 01:30:55;;;;;;;15.80;5.72;;;9.60;78.40;;;;;;5032774;28;20414;-77
2022/05/09 01:33:34;;;;;;;19.05;5.85;;;9.60;78.70;;;;;;5033232;28;20042;-77
2022/05/09 01:36:15;;;;;;;14.75;5.97;;;9.50;78.60;;;;;;5032695;28;20478;-78
2022/05/09 01:38:49;;;;;;;16.15;5.90;;;9.40;78.90;;;;;;5032554;28;20041;-77
2022/05/09 01:41:18;;;;;;;19.77;5.90;;;9.30;79.00;;;;;;5032156;28;20050;-75
2022/05/09 01:43:49;;;;;;;14.98;6.05;;;9.30;79.30;;;;;;4984354;28;20522;-77
2022/05/09 01:46:21;;;;;;;12.60;5.55;;;9.30;79.50;;;;;;5016138;28;20376;-77
2022/05/09 01:51:36;;;;;;;17.98;6.25;;;9.20;79.60;;;;;;5032554;28;20112;-76
2022/05/09 01:54:04;;;;;;;15.77;5.97;;;9.20;79.70;;;;;;5032063;28;20577;-76
2022/05/09 01:56:34;;;;;;;20.15;6.47;;;9.20;79.80;;;;;;4999872;28;20415;-76
2022/05/09 01:59:04;;;;;;;19.85;6.88;;;9.20;79.90;;;;;;5033368;28;20053;-76
2022/05/09 02:01:45;;;;;;;16.95;6.25;;;9.20;79.90;;;;;;5033661;28;20061;-77
2022/05/09 02:04:15;;;;;;;13.93;6.30;;;9.10;80.00;;;;;;5031760;28;20054;-77
2022/05/09 02:06:44;;;;;;;15.80;6.60;;;9.20;80.00;;;;;;5031242;28;20319;-76
2022/05/09 02:09:13;;;;;;;17.63;5.88;;;9.10;80.10;;;;;;5030530;28;20057;-77
2022/05/09 02:11:43;;;;;;;17.33;6.32;;;9.10;80.20;;;;;;5029597;28;20200;-77
2022/05/09 02:14:11;;;;;;;14.48;6.05;;;9.10;80.30;;;;;;5029375;28;20052;-76
2022/05/09 02:16:40;;;;;;;18.55;6.43;;;9.10;80.50;;;;;;5031312;28;20499;-77
2022/05/09 02:19:10;;;;;;;12.95;6.90;;;9.10;80.50;;;;;;5014996;28;20053;-77
2022/05/09 02:21:39;;;;;;;18.70;7.10;;;9.10;80.60;;;;;;5031242;28;20399;-76
2022/05/09 02:24:07;;;;;;;11.70;6.00;;;9.10;80.60;;;;;;5030715;28;20060;-76
2022/05/09 02:26:37;;;;;;;18.73;6.95;;;9.10;80.70;;;;;;5014049;28;20049;-76
2022/05/09 02:29:05;;;;;;;17.83;7.00;;;9.10;80.70;;;;;;5012600;28;20064;-76
2022/05/09 02:31:34;;;;;;;19.73;6.63;;;9.10;80.80;;;;;;5031214;28;20060;-76
2022/05/09 02:34:02;;;;;;;17.10;6.82;;;9.00;80.90;;;;;;5028900;28;20060;-76
2022/05/09 02:36:30;;;;;;;18.23;6.43;;;9.00;81.00;;;;;;5031016;28;20042;-76
2022/05/09 02:38:58;;;;;;;15.90;6.68;;;9.00;81.00;;;;;;5013883;28;20104;-77
2022/05/09 02:41:26;;;;;;;16.48;6.78;;;9.00;81.10;;;;;;5013446;28;20060;-77
2022/05/09 02:43:53;;;;;;;18.52;6.55;;;9.00;81.20;;;;;;5032514;28;20411;-77
2022/05/09 02:46:21;;;;;;;16.88;6.90;;;9.00;81.20;;;;;;5011781;28;20056;-76
2022/05/09 02:48:49;;;;;;;18.17;6.38;;;9.00;81.30;;;;;;5032425;28;20053;-77
2022/05/09 02:51:17;;;;;;;16.85;6.47;;;9.00;81.30;;;;;;5013742;28;20042;-77
2022/05/09 02:53:54;;;;;;;15.35;6.60;;;9.00;81.30;;;;;;5031470;28;20054;-76
2022/05/09 02:56:22;;;;;;;18.42;6.60;;;8.90;81.40;;;;;;5029998;28;20402;-75
2022/05/09 02:58:50;;;;;;;16.55;6.40;;;9.00;81.40;;;;;;5030546;28;20048;-76
2022/05/09 03:01:18;;;;;;;17.80;6.15;;;8.90;81.40;;;;;;5031081;28;20309;-76
2022/05/09 03:06:33;;;;;;;15.52;6.50;;;8.80;81.50;;;;;;5010984;28;20529;-76
2022/05/09 03:09:01;;;;;;;15.00;6.30;;;8.80;81.60;;;;;;5029947;28;20050;-76
2022/05/09 03:11:30;;;;;;;21.63;6.68;;;8.80;81.60;;;;;;5030847;28;20050;-76
2022/05/09 03:13:58;;;;;;;17.90;6.78;;;8.70;81.60;;;;;;5012070;28;20550;-76
2022/05/09 03:16:27;;;;;;;16.23;6.35;;;8.70;81.70;;;;;;5028709;28;20046;-76
2022/05/09 03:18:55;;;;;;;17.98;6.65;;;8.70;81.70;;;;;;5031847;28;20045;-76
2022/05/09 03:21:23;;;;;;;14.07;5.90;;;8.60;81.80;;;;;;5013113;28;20065;-76
2022/05/09 03:23:50;;;;;;;16.38;6.78;;;8.60;81.90;;;;;;5011936;28;20384;-76
2022/05/09 03:26:19;;;;;;;17.88;6.90;;;8.50;81.90;;;;;;5013161;28;20519;-76
2022/05/09 03:28:46;;;;;;;25.02;6.45;;;8.50;82.00;;;;;;5029236;28;20065;-76
2022/05/09 03:31:14;;;;;;;19.77;6.63;;;8.40;82.10;;;;;;5012553;28;20049;-75
2022/05/09 03:33:42;;;;;;;14.90;6.25;;;8.40;82.10;;;;;;5020331;28;20056;-76
2022/05/09 03:36:10;;;;;;;11.75;6.15;;;8.40;82.10;;;;;;5029833;28;20088;-76
2022/05/09 03:38:38;;;;;;;16.38;6.30;;;8.30;82.20;;;;;;5028797;28;20057;-76
2022/05/09 03:41:06;;;;;;;19.35;6.72;;;8.30;82.30;;;;;;5013659;28;20057;-76
2022/05/09 03:43:34;;;;;;;15.43;6.22;;;8.30;82.40;;;;;;5011703;28;20363;-76
2022/05/09 03:49:29;;;;;;;14.98;6.38;;;8.30;82.50;;;;;;5186943;23;20053;-72
2022/05/09 03:51:56;;;;;;;14.23;6.25;;;8.30;82.60;;;;;;4812450;29;20062;-86
2022/05/09 03:54:24;;;;;;;15.30;6.72;;;8.30;82.60;;;;;;4822621;29;20058;-88
2022/05/09 03:56:52;;;;;;;15.40;6.35;;;8.30;82.60;;;;;;4823579;29;20065;-88
2022/05/09 03:59:20;;;;;;;16.13;6.25;;;8.30;82.60;;;;;;4824515;29;20065;-89
2022/05/09 04:01:48;;;;;;;13.05;5.70;;;8.30;82.60;;;;;;4823340;29;20058;-88
2022/05/09 04:04:15;;;;;;;13.75;6.13;;;8.30;82.60;;;;;;4825519;29;20065;-86
2022/05/09 04:06:43;;;;;;;14.20;6.45;;;8.30;82.60;;;;;;4833018;29;20125;-87
2022/05/09 04:09:11;;;;;;;16.90;6.68;;;8.30;82.60;;;;;;4832236;29;20058;-87
2022/05/09 04:11:38;;;;;;;15.20;6.18;;;8.30;82.70;;;;;;4830057;29;20046;-88
2022/05/09 04:14:06;;;;;;;13.43;6.10;;;8.30;82.70;;;;;;4826396;29;20055;-88
2022/05/09 04:16:52;;;;;;;15.15;6.20;;;8.30;82.80;;;;;;4824571;29;20050;-88
2022/05/09 04:19:20;;;;;;;13.82;5.78;;;8.30;82.80;;;;;;4823396;29;20385;-88
2022/05/09 04:21:48;;;;;;;13.75;5.50;;;8.30;82.80;;;;;;4823313;29;20077;-88
2022/05/09 04:24:15;;;;;;;17.67;6.38;;;8.30;82.90;;;;;;4824376;29;20050;-88
2022/05/09 04:26:43;;;;;;;15.57;5.90;;;8.30;82.90;;;;;;4823853;29;20061;-88
2022/05/09 04:29:11;;;;;;;16.33;5.88;;;8.30;82.90;;;;;;4826301;29;20059;-89
2022/05/09 04:31:38;;;;;;;16.10;5.90;;;8.30;83.00;;;;;;4825767;29;20396;-87
2022/05/09 04:34:06;;;;;;;17.90;5.90;;;8.30;83.10;;;;;;4830108;29;20059;-87
2022/05/09 04:36:35;;;;;;;12.35;5.85;;;8.30;83.10;;;;;;4810606;29;20408;-88
2022/05/09 04:39:08;;;;;;;13.27;5.90;;;8.30;83.10;;;;;;4826147;29;20045;-87
2022/05/09 04:41:36;;;;;;;15.52;6.38;;;8.30;83.10;;;;;;4826982;29;20050;-88
2022/05/09 04:44:05;;;;;;;12.85;5.60;;;8.40;83.00;;;;;;4826052;29;20054;-88
2022/05/09 04:46:33;;;;;;;9.77;5.30;;;8.40;83.00;;;;;;4826776;29;20059;-88
2022/05/09 04:49:01;;;;;;;12.63;5.38;;;8.30;83.00;;;;;;4825584;29;20489;-87
2022/05/09 04:51:29;;;;;;;10.00;5.70;;;8.40;83.00;;;;;;4825752;29;20054;-88
2022/05/09 04:53:56;;;;;;;15.45;5.65;;;8.40;83.00;;;;;;4824799;29;20050;-88
2022/05/09 04:56:24;;;;;;;17.05;6.80;;;8.50;83.00;;;;;;4824205;29;20053;-88
2022/05/09 04:58:51;;;;;;;15.88;6.32;;;8.50;82.90;;;;;;4826142;29;20038;-88
2022/05/09 05:01:19;;;;;;;18.70;5.88;;;8.50;82.90;;;;;;4825010;29;20065;-89
2022/05/09 05:03:47;;;;;;;15.73;5.47;;;8.60;82.90;;;;;;4825086;29;20176;-88
2022/05/09 05:06:15;;;;;;;10.70;5.32;;;8.60;82.80;;;;;;4823384;29;20054;-88
2022/05/09 05:08:42;;;;;;;12.32;5.18;;;8.70;82.80;;;;;;4826245;29;20051;-87
2022/05/09 05:11:10;;;;;;;10.80;5.32;;;8.70;82.80;;;;;;4825652;29;20055;-88
2022/05/09 05:13:38;;;;;;;13.95;5.78;;;8.80;82.70;;;;;;4825729;29;20054;-87
2022/05/09 05:16:05;;;;;;;17.15;5.97;;;8.80;82.60;;;;;;4826082;29;20047;-89
2022/05/09 05:18:34;;;;;;;11.13;5.57;;;8.90;82.60;;;;;;4826012;29;20061;-87
2022/05/09 05:21:11;;;;;;;13.48;5.70;;;9.00;82.50;;;;;;4824704;29;20130;-88
2022/05/09 05:23:39;;;;;;;15.63;5.95;;;9.10;82.40;;;;;;4825723;29;20042;-88
2022/05/09 05:26:07;;;;;;;14.07;5.57;;;9.20;82.30;;;;;;4826550;29;20062;-88
2022/05/09 05:28:35;;;;;;;16.77;6.03;;;9.30;82.20;;;;;;4828919;29;20070;-88
2022/05/09 05:31:17;;;;;;;8.27;5.22;;;9.30;82.00;;;;;;4832722;29;20057;-88
2022/05/09 05:33:45;;;;;;;14.40;5.32;;;9.40;81.90;;;;;;4837860;29;20054;-88
2022/05/09 05:36:14;;;;;;;8.93;5.10;;;9.50;81.80;;;;;;4825654;29;20056;-86
2022/05/09 05:38:43;;;;;;;10.35;5.55;;;9.60;81.60;;;;;;4821311;29;20051;-80
2022/05/09 05:41:11;;;;;;;9.10;5.18;;;9.70;81.50;;;;;;4825366;29;20050;-88
2022/05/09 05:43:39;;;;;;;14.98;5.80;;;9.80;81.40;;;;;;4826628;29;20075;-87
2022/05/09 05:46:09;;;;;;;13.32;5.68;;;9.80;81.20;;;;;;4819840;29;20058;-87
2022/05/09 05:48:37;;;;;;;9.88;5.00;;;9.90;81.00;;;;;;4822980;29;20062;-87
2022/05/09 05:51:05;;;;;;;15.93;5.32;;;10.00;80.90;;;;;;4830607;29;20061;-88
2022/05/09 05:53:36;;;;;;;15.90;5.25;;;10.10;80.70;;;;;;4825152;29;20046;-89
2022/05/09 05:56:04;;;;;;;12.68;5.00;;;10.20;80.60;;;;;;4824863;29;20065;-88
2022/05/09 05:58:33;;;;;;;15.00;4.95;;;10.30;80.40;;;;;;4824328;29;20046;-88
2022/05/09 06:01:01;;;;;;;10.63;4.80;;;10.30;80.20;;;;;;4826019;29;20046;-88
2022/05/09 06:03:28;;;;;;;8.38;4.68;;;10.40;80.00;;;;;;4824513;29;20473;-89
2022/05/09 06:05:56;;;;;;;13.68;5.35;;;10.40;79.90;;;;;;4807988;29;20046;-87
2022/05/09 06:08:24;;;;;;;11.68;4.43;;;10.50;79.80;;;;;;4824230;29;20401;-88
2022/05/09 06:10:51;;;;;;;14.73;4.63;;;10.60;79.70;;;;;;4825726;29;20069;-87
2022/05/09 06:13:19;;;;;;;11.18;4.53;;;10.70;79.50;;;;;;4824390;29;20427;-88
2022/05/09 06:15:48;;;;;;;11.43;4.43;;;10.70;79.30;;;;;;4826196;29;20051;-87
2022/05/09 06:18:17;;;;;;;13.98;5.10;;;10.80;79.20;;;;;;4832889;29;20057;-88
2022/05/09 06:20:45;;;;;;;11.98;4.57;;;10.80;79.10;;;;;;4820080;29;20059;-87
2022/05/09 06:23:16;;;;;;;14.40;4.75;;;10.90;78.90;;;;;;4834765;29;20045;-88
2022/05/09 06:25:46;;;;;;;7.43;4.40;;;11.00;78.80;;;;;;4820099;29;20043;-89
2022/05/09 06:28:15;;;;;;;11.60;5.10;;;11.00;78.60;;;;;;4827820;29;20046;-89
2022/05/09 06:30:43;;;;;;;10.80;5.10;;;11.10;78.40;;;;;;4824760;29;20069;-89
2022/05/09 06:33:11;;;;;;;11.23;4.70;;;11.30;78.30;;;;;;4839677;29;20054;-87
2022/05/09 06:35:43;;;;;;;11.90;4.43;;;11.30;78.10;;;;;;4823953;29;20053;-90
2022/05/09 06:38:15;;;;;;;11.82;4.88;;;11.30;77.90;;;;;;4836763;29;20082;-89
2022/05/09 06:40:43;;;;;;;10.13;4.20;;;11.40;77.80;;;;;;4823736;29;20537;-89
2022/05/09 06:43:10;;;;;;;13.35;4.50;;;11.40;77.70;;;;;;4820258;29;20046;-89
2022/05/09 06:45:41;;;;;;;14.95;4.38;;;11.50;77.60;;;;;;4800790;29;20057;-88
2022/05/09 06:48:09;;;;;;;14.00;4.07;;;11.50;77.40;;;;;;4814805;29;20053;-89
2022/05/09 06:50:39;;;;;;;19.65;4.72;;;11.60;77.20;;;;;;4824452;29;20054;-88
2022/05/09 06:53:08;;;;;;;13.88;4.32;;;11.80;77.00;;;;;;4823624;29;20062;-89
2022/05/09 06:55:47;;;;;;;14.40;4.38;;;11.80;76.80;;;;;;4823746;29;20400;-90
2022/05/09 06:58:18;;;;;;;11.88;4.18;;;11.80;76.50;;;;;;4824276;29;20061;-89
2022/05/09 07:00:46;;;;;;;19.77;4.13;;;11.80;76.00;;;;;;4822723;29;20046;-89
2022/05/09 07:03:14;;;;;;;10.20;3.90;;;11.80;75.90;;;;;;4825097;29;20066;-87
2022/05/09 07:05:45;;;;;;;11.52;4.55;;;11.90;75.70;;;;;;4821845;29;20496;-88
2022/05/09 07:08:13;;;;;;;9.48;3.72;;;11.90;75.60;;;;;;4819750;29;20400;-88
2022/05/09 07:10:42;;;;;;;14.90;3.95;;;12.00;75.50;;;;;;4816020;29;20050;-89
2022/05/09 07:13:14;;;;;;;10.93;3.63;;;12.00;75.10;;;;;;4823518;29;20512;-88
2022/05/09 07:15:42;;;;;;;9.13;3.70;;;12.10;74.70;;;;;;4824404;29;20539;-88
2022/05/09 07:18:09;;;;;;;13.32;3.65;;;12.10;74.40;;;;;;4807510;29;20054;-89
2022/05/09 07:20:38;;;;;;;14.90;4.10;;;12.10;74.20;;;;;;4823337;29;20414;-89
2022/05/09 07:23:11;;;;;;;15.15;4.13;;;12.20;74.10;;;;;;4823259;29;20050;-89
2022/05/09 07:25:39;;;;;;;;;;;12.20;74.10;;;;;;4819159;29;20362;-89
2022/05/09 07:28:07;;;;;;;15.48;3.67;;;12.30;73.90;;;;;;4823296;29;19925;-88
2022/05/09 07:30:34;;;;;;;11.32;3.80;;;12.30;73.90;;;;;;4825277;29;20066;-89
2022/05/09 07:33:02;;;;;;;19.88;4.70;;;12.40;73.80;;;;;;4824698;29;20055;-88
2022/05/09 07:35:32;;;;;;;12.93;3.60;;;12.60;73.80;;;;;;4824649;29;20057;-89
2022/05/09 07:38:00;;;;;;;14.40;4.07;;;12.80;73.50;;;;;;4823735;29;20065;-89
2022/05/09 07:40:35;;;;;;;13.15;4.18;;;12.90;72.90;;;;;;4831048;29;20058;-89
2022/05/09 07:43:09;;;;;;;12.20;3.55;;;13.10;72.20;;;;;;4842429;29;20050;-89
2022/05/09 07:45:36;;;;;;;11.65;3.55;;;13.30;71.90;;;;;;4835538;29;20065;-89
2022/05/09 07:48:04;;;;;;;11.63;3.65;;;13.40;71.10;;;;;;4831253;29;20055;-89
2022/05/09 07:50:32;;;;;;;10.43;3.38;;;13.50;70.50;;;;;;4829471;29;20066;-89
2022/05/09 07:53:14;;;;;;;8.57;3.30;;;13.70;69.60;;;;;;4827211;29;20051;-89
2022/05/09 07:55:42;;;;;;;9.65;3.42;;;13.80;68.60;;;;;;4827040;29;20062;-89
2022/05/09 07:58:13;;;;;;;10.70;3.33;;;14.00;67.90;;;;;;4824383;29;20054;-89
2022/05/09 08:00:42;;;;;;;10.52;3.28;;;14.10;67.20;;;;;;4825499;29;20047;-89
2022/05/09 08:03:17;;;;;;;7.70;2.97;;;14.30;66.90;;;;;;4826085;29;20062;-90
2022/05/09 08:05:45;;;;;;;10.68;3.17;;;14.40;66.20;;;;;;4828825;29;20050;-89
2022/05/09 08:08:14;;;;;;;10.60;3.00;;;14.40;65.80;;;;;;4828710;29;20053;-90
2022/05/09 08:10:43;;;;;;;8.30;3.20;;;14.50;65.60;;;;;;4827414;29;20058;-89
2022/05/09 08:13:14;;;;;;;10.73;2.88;;;14.50;65.40;;;;;;4828524;29;20065;-90
2022/05/09 08:15:45;;;;;;;12.10;3.25;;;14.70;65.40;;;;;;4827711;29;20054;-90
2022/05/09 08:18:14;;;;;;;9.23;3.10;;;14.80;64.90;;;;;;4827613;29;20066;-90
2022/05/09 08:20:45;;;;;;;8.85;3.38;;;14.80;64.80;;;;;;4826878;29;20090;-91
2022/05/09 08:23:19;;;;;;;11.15;3.13;;;14.90;64.60;;;;;;4827200;29;20166;-90
2022/05/09 08:25:49;;;;;;;9.52;3.28;;;14.90;64.30;;;;;;4829877;29;20077;-89
2022/05/09 08:28:18;;;;;;;10.45;3.30;;;15.00;64.00;;;;;;4838180;29;20062;-88
2022/05/09 08:30:47;;;;;;;10.55;3.25;;;15.00;63.80;;;;;;4836746;29;20057;-89
2022/05/09 08:33:17;;;;;;;6.15;2.35;;;15.10;63.60;;;;;;4834436;29;20050;-89
2022/05/09 08:35:48;;;;;;;6.32;2.40;;;15.20;62.40;;;;;;4829561;29;20042;-89
2022/05/09 08:38:16;;;;;;;7.97;2.33;;;15.30;62.50;;;;;;4828674;29;20059;-89
2022/05/09 08:41:11;;;;;;;7.57;2.38;;;15.30;61.30;;;;;;4828596;29;20386;-90
2022/05/09 08:44:09;;;;;;;6.90;2.33;;;15.30;61.00;;;;;;4842166;29;20046;-90
2022/05/09 08:46:58;;;;;;;7.07;2.57;;;15.40;60.70;;;;;;4828506;29;20047;-89
2022/05/09 08:49:47;;;;;;;5.00;2.33;;;15.50;60.10;;;;;;4827123;29;20061;-89
2022/05/09 08:52:19;;;;;;;8.23;2.17;;;15.50;59.50;;;;;;4826730;29;20051;-90
2022/05/09 08:54:48;;;;;;;6.70;1.80;;;15.70;59.80;;;;;;4828008;29;20046;-90
2022/05/09 08:57:23;;;;;;;8.13;1.92;;;15.90;59.30;;;;;;4827293;29;20069;-89
2022/05/09 09:00:02;;;;;;;6.65;2.03;;;16.10;58.20;;;;;;4826256;29;20051;-90
2022/05/09 09:02:40;;;;;;;4.88;1.50;;;16.30;56.40;;;;;;4826175;29;20386;-91
2022/05/09 09:05:12;;;;;;;6.82;1.55;;;16.40;53.80;;;;;;4826813;29;20069;-91
2022/05/09 09:08:05;;;;;;;5.22;1.33;;;16.40;53.60;;;;;;4826855;29;20069;-90
2022/05/09 09:10:39;;;;;;;6.50;1.48;;;16.50;53.90;;;;;;4825447;29;20066;-90
2022/05/09 09:13:23;;;;;;;5.88;1.50;;;16.70;53.90;;;;;;4825940;29;20050;-90
2022/05/09 09:16:22;;;;;;;5.80;1.30;;;16.80;51.80;;;;;;4840731;29;20207;-92
2022/05/09 09:18:59;;;;;;;7.95;1.67;;;16.90;52.10;;;;;;4824073;29;20046;-90
2022/05/09 09:21:56;;;;;;;9.25;1.30;;;17.10;52.90;;;;;;4826919;29;20059;-90
2022/05/09 09:24:57;;;;;;;4.50;1.50;;;17.30;52.10;;;;;;4823435;29;20050;-90
2022/05/09 09:27:43;;;;;;;6.00;1.13;;;17.30;51.10;;;;;;4827463;29;20057;-90
2022/05/09 09:30:15;;;;;;;4.88;1.55;;;17.30;51.00;;;;;;4827101;29;20523;-90
2022/05/09 09:32:47;;;;;;;3.72;1.40;;;17.30;49.90;;;;;;4826917;29;20065;-90
2022/05/09 09:35:21;;;;;;;6.07;1.57;;;17.30;50.70;;;;;;4827031;29;20049;-91
2022/05/09 09:37:55;;;;;;;4.18;1.20;;;17.30;50.90;;;;;;4826773;29;20061;-90
2022/05/09 09:40:23;;;;;;;2.67;1.50;;;17.40;51.10;;;;;;4826992;29;20504;-89
2022/05/09 09:42:53;;;;;;;5.15;1.40;;;17.40;50.80;;;;;;4828085;29;20050;-91
2022/05/09 09:45:32;;;;;;;7.90;1.50;;;17.40;50.80;;;;;;4827590;29;20057;-91
2022/05/09 09:48:22;;;;;;;8.07;2.00;;;17.40;50.50;;;;;;4830204;29;20523;-92
2022/05/09 09:51:03;;;;;;;8.32;1.98;;;17.40;49.90;;;;;;4841832;29;20035;-91
2022/05/09 09:53:36;;;;;;;9.10;1.83;;;17.30;50.10;;;;;;4846987;29;20429;-89
2022/05/09 09:56:11;;;;;;;5.87;1.90;;;17.30;49.90;;;;;;4845898;29;20061;-90
2022/05/09 09:58:40;;;;;;;6.88;1.88;;;17.30;50.20;;;;;;4829979;29;20778;-90
2022/05/09 10:01:20;;;;;;;9.13;2.08;;;17.30;51.10;;;;;;4827680;29;20062;-89
2022/05/09 10:04:10;;;;;;;6.13;2.00;;;17.30;51.50;;;;;;4809376;29;20055;-89
2022/05/09 10:06:58;;;;;;;5.75;1.90;;;17.50;51.40;;;;;;4840599;29;20101;-89
2022/05/09 10:09:29;;;;;;;7.55;2.22;;;17.70;51.50;;;;;;4840925;29;20061;-91
2022/05/09 10:12:14;;;;;;;10.23;2.20;;;17.80;50.50;;;;;;4825408;29;20042;-90
2022/05/09 10:14:42;;;;;;;6.43;1.95;;;17.90;50.00;;;;;;4827268;29;20038;-91
2022/05/09 10:17:30;;;;;;;7.70;1.88;;;18.00;50.00;;;;;;4827707;29;20065;-91
2022/05/09 10:20:00;;;;;;;6.63;2.00;;;18.00;50.00;;;;;;4826688;29;20057;-92
2022/05/09 10:25:27;;;;;;;9.38;2.25;;;18.20;49.80;;;;;;4826305;29;20054;-89
2022/05/09 10:28:14;;;;;;;9.38;2.50;;;18.30;49.50;;;;;;4844101;29;20051;-90
2022/05/09 10:30:46;;;;;;;7.68;2.10;;;18.30;49.70;;;;;;4842968;29;20071;-89
2022/05/09 10:33:32;;;;;;;7.70;2.30;;;18.50;49.70;;;;;;4828775;29;20051;-90
2022/05/09 10:36:08;;;;;;;4.38;2.00;;;18.60;50.00;;;;;;4832224;29;20062;-90
2022/05/09 10:38:54;;;;;;;9.55;2.47;;;18.70;49.90;;;;;;4836060;29;20219;-90
2022/05/09 10:41:34;;;;;;;3.90;2.38;;;18.80;49.60;;;;;;4825228;29;20050;-89
2022/05/09 10:44:13;;;;;;;9.40;2.35;;;18.80;49.10;;;;;;4835943;29;20054;-90
2022/05/09 10:46:52;;;;;;;5.60;2.20;;;18.80;49.00;;;;;;4836326;29;20047;-90
2022/05/09 10:49:32;;;;;;;12.13;3.00;;;18.80;49.70;;;;;;4827932;29;20051;-88
2022/05/09 10:52:31;;;;;;;5.55;2.58;;;19.00;50.00;;;;;;4827763;29;20074;-90
2022/05/09 10:55:12;;;;;;;10.68;2.80;;;19.20;50.30;;;;;;4830238;29;20046;-91
2022/05/09 10:57:46;;;;;;;7.45;2.30;;;19.40;49.30;;;;;;4825523;29;20102;-90
2022/05/09 11:00:19;;;;;;;;;;;19.40;48.70;;;;;;4827825;29;20066;-92
2022/05/09 11:03:10;;;;;;;9.07;2.45;;;19.30;48.90;;;;;;4825850;29;19924;-90
2022/05/09 11:05:54;;;;;;;10.23;3.05;;;19.20;48.60;;;;;;4825794;29;20062;-89
2022/05/09 11:08:39;;;;;;;6.43;2.83;;;18.80;49.80;;;;;;4825578;29;20106;-91
2022/05/09 11:11:39;;;;;;;6.82;2.90;;;18.50;50.60;;;;;;4826162;29;20054;-91
2022/05/09 11:14:17;;;;;;;5.85;2.95;;;18.30;51.20;;;;;;4825458;29;20054;-90
2022/05/09 11:17:12;;;;;;;6.55;3.03;;;18.20;51.70;;;;;;4826393;29;20069;-88
2022/05/09 11:19:52;;;;;;;3.92;2.92;;;18.10;51.70;;;;;;4827446;29;20133;-90
2022/05/09 11:22:47;;;;;;;7.25;3.17;;;17.80;52.50;;;;;;4827363;29;20493;-90
2022/05/09 11:25:42;;;;;;;10.70;3.15;;;17.60;53.20;;;;;;4825774;29;20050;-89
2022/05/09 11:28:10;;;;;;;9.40;3.47;;;17.50;53.80;;;;;;4823376;29;20061;-90
2022/05/09 11:30:41;;;;;;;7.32;3.30;;;17.50;54.30;;;;;;4825554;29;20061;-90
2022/05/09 11:33:42;;;;;;;10.50;3.60;;;17.70;54.70;;;;;;4826103;29;20437;-90
2022/05/09 11:36:40;;;;;;;7.13;3.80;;;17.80;54.20;;;;;;4825474;29;20058;-90
2022/05/09 11:39:20;;;;;;;9.80;3.83;;;17.90;54.00;;;;;;4830886;29;20066;-89
2022/05/09 11:45:13;;;;;;;8.27;4.13;;;18.30;53.90;;;;;;4828726;29;20416;-91
2022/05/09 11:47:54;;;;;;;10.40;3.90;;;18.70;53.20;;;;;;4828540;29;20061;-91
2022/05/09 11:50:42;;;;;;;8.55;3.42;;;19.00;52.60;;;;;;4828660;29;20077;-90
2022/05/09 11:53:12;;;;;;;9.02;3.55;;;19.30;51.20;;;;;;4844890;29;20201;-90
2022/05/09 11:55:41;;;;;;;15.23;4.13;;;19.50;51.10;;;;;;4830279;29;20058;-90
2022/05/09 11:58:10;;;;;;;14.07;4.00;;;19.70;51.10;;;;;;4861140;29;20204;-89
2022/05/09 12:00:40;;;;;;;17.67;4.13;;;19.80;49.50;;;;;;4840384;29;20077;-91
2022/05/09 12:03:10;;;;;;;18.23;4.75;;;19.80;49.80;;;;;;4859783;29;20044;-91
2022/05/09 12:05:38;;;;;;;15.13;5.15;;;19.90;49.90;;;;;;4867429;29;20125;-91
2022/05/09 12:08:08;;;;;;;6.47;3.33;;;20.00;50.00;;;;;;4848266;29;20046;-89
2022/05/09 12:10:42;;;;;;;9.15;3.88;;;20.00;49.50;;;;;;4838293;29;20057;-90
2022/05/09 12:13:35;;;;;;;7.85;4.30;;;20.10;49.20;;;;;;4846059;29;20061;-89
2022/05/09 12:16:03;;;;;;;8.35;4.25;;;20.00;49.40;;;;;;4830252;29;20050;-91
2022/05/09 12:19:00;;;;;;;7.00;3.60;;;19.80;50.00;;;;;;4845842;29;20046;-90
2022/05/09 12:21:37;;;;;;;10.73;4.40;;;19.70;50.50;;;;;;4833271;29;20042;-91
2022/05/09 12:24:17;;;;;;;6.88;3.90;;;19.40;50.80;;;;;;4844249;29;20062;-91
2022/05/09 12:26:51;;;;;;;9.55;3.83;;;19.00;50.80;;;;;;4845137;29;20062;-91
2022/05/09 12:29:19;;;;;;;17.52;5.00;;;18.80;51.70;;;;;;4842852;29;20057;-91
2022/05/09 12:31:51;;;;;;;15.32;4.90;;;18.70;52.50;;;;;;4828298;29;20531;-89
2022/05/09 12:34:38;;;;;;;8.43;4.22;;;18.70;52.90;;;;;;4827267;29;20059;-90
2022/05/09 12:37:11;;;;;;;8.88;4.53;;;18.60;53.60;;;;;;4827909;29;20058;-90
2022/05/09 12:39:52;;;;;;;8.55;4.60;;;18.50;53.50;;;;;;4828503;29;20061;-90
2022/05/09 12:42:23;;;;;;;10.02;4.40;;;18.60;53.90;;;;;;4817297;29;20054;-90
2022/05/09 12:44:56;;;;;;;10.60;4.90;;;18.70;53.90;;;;;;4828826;29;20046;-89
2022/05/09 12:47:29;;;;;;;8.45;4.85;;;18.90;53.70;;;;;;4839711;29;20062;-89
2022/05/09 12:50:08;;;;;;;11.05;4.50;;;19.30;53.00;;;;;;4839902;29;20065;-89
2022/05/09 12:52:42;;;;;;;6.05;3.80;;;19.50;51.60;;;;;;4841081;29;20400;-88
2022/05/09 12:57:59;;;;;;;7.28;4.03;;;19.40;49.70;;;;;;4830324;29;20054;-90
2022/05/09 13:00:30;;;;;;;11.07;4.20;;;19.20;50.80;;;;;;4831629;29;20058;-89
2022/05/09 13:03:17;;;;;;;8.25;4.25;;;19.10;51.40;;;;;;4825977;29;20401;-90
2022/05/09 13:05:46;;;;;;;8.80;4.28;;;19.00;51.90;;;;;;4831943;29;20061;-89
2022/05/09 13:08:15;;;;;;;7.10;4.40;;;19.00;52.10;;;;;;4826843;29;20054;-90
2022/05/09 13:10:57;;;;;;;9.43;4.60;;;19.00;52.30;;;;;;4827786;29;20054;-90
2022/05/09 13:13:31;;;;;;;17.70;5.25;;;19.00;52.50;;;;;;4826299;29;20038;-89
2022/05/09 13:16:00;;;;;;;6.68;4.35;;;19.00;52.90;;;;;;4826191;29;20054;-88
2022/05/09 13:18:29;;;;;;;12.27;4.55;;;19.00;53.00;;;;;;4826915;29;20046;-89
2022/05/09 13:21:04;;;;;;;11.68;4.47;;;19.10;53.20;;;;;;4827363;29;20065;-89
2022/05/09 13:23:39;;;;;;;9.75;4.30;;;19.00;53.30;;;;;;4824120;29;20057;-89
2022/05/09 13:26:14;;;;;;;7.55;4.43;;;19.00;52.80;;;;;;4826448;29;20046;-90
2022/05/09 13:28:49;;;;;;;13.43;4.68;;;18.90;53.20;;;;;;4825503;29;20050;-90
2022/05/09 13:31:35;;;;;;;9.88;4.43;;;18.80;53.40;;;;;;4826456;29;20069;-90